Wrigley, Kentucky
Current Conditions -  °F | °C
As of 9:50 AM on Sunday 23 Nov 2014 (Local Time) from KSYM Reporting Station
Broken Clouds Broken Clouds  
Wind Chill: 57°   Ceiling: 8000
Heat Index: 57°   Visibility: 10mi
Dew Point: 36°   Wind: 6mph
Humidity: 44%   Direction: NA
Pressure: 29.99"   Gusts: NA
Location:  38.02°N, 83.27°W
Report Text: KSYM 231450Z AUTO VRB05KT 10SM FEW050 BKN080 14/02 A2999 RMK AO2
Loading
Personal Weather Stations






























Interactive Weather Map New forecast layout! Learn more

10-Day Weather Forecast

Advertisements
Track Severe Weather on mobile